Time;durP1;ratioP1;P1;durP2;ratioP2;P2;SDS_P1;SDS_P2;PMS_P1;PMS_P2;Temp;Humidity;BMP_temperature;BMP_pressure;BME280_temperature;BME280_humidity;BME280_pressure;Samples;Min_cycle;Max_cycle;Signal;HPM_P1;HPM_P2
2022/03/01 00:01:30;;;;;;;0.50;0.50;;;-1.60;99.90;;;;;;5231234;28;20023;-76
2022/03/01 00:04:06;;;;;;;0.40;0.40;;;-1.60;99.90;;;;;;5223768;28;20342;-77
2022/03/01 00:06:46;;;;;;;0.50;0.50;;;-1.60;99.90;;;;;;5233851;28;20045;-75
2022/03/01 00:09:23;;;;;;;0.93;0.90;;;-1.70;99.90;;;;;;5260770;28;20047;-76
2022/03/01 00:11:55;;;;;;;0.40;0.40;;;-1.80;99.90;;;;;;5263055;28;20039;-77
2022/03/01 00:14:31;;;;;;;0.40;0.40;;;-1.90;99.90;;;;;;5255459;28;20037;-77
2022/03/01 00:17:05;;;;;;;0.73;0.73;;;-2.00;99.90;;;;;;5251179;28;20041;-76
2022/03/01 00:19:43;;;;;;;;;;;-2.00;99.90;;;;;;5264913;28;20031;-77
2022/03/01 00:22:14;;;;;;;0.40;0.40;;;-1.90;99.90;;;;;;5231066;28;19912;-78
2022/03/01 00:24:48;;;;;;;0.43;0.43;;;-1.90;99.90;;;;;;5265652;28;20032;-76
2022/03/01 00:27:24;;;;;;;0.70;0.70;;;-1.90;99.90;;;;;;5256275;28;20048;-77
2022/03/01 00:29:58;;;;;;;0.37;0.37;;;-2.00;99.90;;;;;;5237001;28;20353;-76
2022/03/01 00:32:29;;;;;;;0.50;0.50;;;-1.90;99.90;;;;;;5233921;28;20043;-78
2022/03/01 00:35:06;;;;;;;0.50;0.50;;;-1.90;99.90;;;;;;5253251;28;20047;-77
2022/03/01 00:37:43;;;;;;;1.63;1.53;;;-1.80;99.90;;;;;;5244715;28;20044;-77
2022/03/01 00:40:19;;;;;;;0.50;0.50;;;-1.80;99.90;;;;;;5243983;28;20042;-76
2022/03/01 00:42:56;;;;;;;0.50;0.50;;;-1.90;99.90;;;;;;5256323;28;20040;-76
2022/03/01 00:45:30;;;;;;;0.60;0.60;;;-1.90;99.90;;;;;;5249257;28;20055;-77
2022/03/01 00:48:04;;;;;;;;;;;-2.00;99.90;;;;;;5271069;28;20040;-76
2022/03/01 00:50:37;;;;;;;0.32;0.32;;;-2.10;99.90;;;;;;5258533;28;19916;-77
2022/03/01 00:53:08;;;;;;;0.37;0.37;;;-2.00;99.90;;;;;;5231821;28;20046;-76
2022/03/01 00:55:42;;;;;;;0.50;0.50;;;-2.10;99.90;;;;;;5227387;28;20032;-76
2022/03/01 00:58:16;;;;;;;0.50;0.50;;;-2.10;99.90;;;;;;5214630;28;20046;-77
2022/03/01 01:00:51;;;;;;;0.70;0.70;;;-2.10;99.90;;;;;;5239860;28;20032;-78
2022/03/01 01:03:28;;;;;;;0.80;0.80;;;-2.10;99.90;;;;;;5235938;28;21030;-77
2022/03/01 01:05:59;;;;;;;0.97;0.97;;;-2.20;99.90;;;;;;5215900;28;20048;-76
2022/03/01 01:08:32;;;;;;;0.50;0.50;;;-2.20;99.90;;;;;;5232551;28;20283;-77
2022/03/01 01:11:08;;;;;;;0.60;0.60;;;-2.20;99.90;;;;;;5227147;28;20066;-76
2022/03/01 01:13:39;;;;;;;1.10;1.10;;;-2.20;99.90;;;;;;5224880;28;20048;-77
2022/03/01 01:16:16;;;;;;;0.50;0.50;;;-2.10;99.90;;;;;;5244207;28;20056;-77
2022/03/01 01:18:49;;;;;;;0.80;0.80;;;-2.20;99.90;;;;;;5238600;28;20040;-79
2022/03/01 01:21:21;;;;;;;2.30;2.10;;;-2.20;99.90;;;;;;5221829;28;20066;-77
2022/03/01 01:23:57;;;;;;;0.80;0.80;;;-2.20;99.90;;;;;;5229402;28;20044;-77
2022/03/01 01:26:30;;;;;;;0.40;0.40;;;-2.20;99.90;;;;;;5244264;28;20027;-76
2022/03/01 01:29:04;;;;;;;0.30;0.30;;;-2.20;99.90;;;;;;5263308;28;20058;-79
2022/03/01 01:31:39;;;;;;;0.60;0.60;;;-2.10;99.90;;;;;;5246786;28;20652;-79
2022/03/01 01:34:12;;;;;;;;;;;-2.10;99.90;;;;;;5236301;28;20238;-78
2022/03/01 01:36:46;;;;;;;0.50;0.50;;;-2.00;99.90;;;;;;5235746;28;19918;-76
2022/03/01 01:39:23;;;;;;;0.63;0.63;;;-2.00;99.90;;;;;;5251736;28;20028;-76
2022/03/01 01:41:58;;;;;;;0.80;0.80;;;-2.00;99.90;;;;;;5235458;28;20386;-77
2022/03/01 01:44:35;;;;;;;0.80;0.80;;;-2.00;99.90;;;;;;5243000;28;20255;-78
2022/03/01 01:47:11;;;;;;;0.80;0.80;;;-2.00;99.90;;;;;;5232059;28;20032;-77
2022/03/01 01:49:46;;;;;;;1.67;1.57;;;-1.90;99.90;;;;;;5263584;28;20236;-77
2022/03/01 01:52:19;;;;;;;0.40;0.40;;;-2.00;99.90;;;;;;5263541;28;20048;-76
2022/03/01 01:54:56;;;;;;;0.80;0.80;;;-1.90;99.90;;;;;;5233168;28;20036;-76
2022/03/01 01:57:35;;;;;;;0.30;0.30;;;-2.00;99.90;;;;;;5234485;28;20039;-76
2022/03/01 02:00:11;;;;;;;1.23;1.23;;;-2.00;99.90;;;;;;5233799;28;20054;-76
2022/03/01 02:02:52;;;;;;;0.47;0.47;;;-2.10;99.90;;;;;;5248843;28;20343;-76
2022/03/01 02:05:24;;;;;;;0.40;0.40;;;-2.10;99.90;;;;;;5233481;28;20040;-75
2022/03/01 02:07:58;;;;;;;0.40;0.40;;;-2.20;99.90;;;;;;5217804;28;20040;-76
2022/03/01 02:10:32;;;;;;;0.60;0.60;;;-2.30;99.90;;;;;;5243863;28;20409;-77
2022/03/01 02:13:03;;;;;;;;;;;-2.30;99.90;;;;;;5235425;28;20046;-76
2022/03/01 02:15:40;;;;;;;0.47;0.47;;;-2.40;99.90;;;;;;5258233;28;19918;-77
2022/03/01 02:18:13;;;;;;;0.30;0.30;;;-2.30;99.90;;;;;;5255161;28;20380;-76
2022/03/01 02:20:45;;;;;;;0.52;0.52;;;-2.30;99.90;;;;;;5235167;28;20047;-78
2022/03/01 02:23:17;;;;;;;0.50;0.50;;;-2.40;99.90;;;;;;5218972;28;20050;-77
2022/03/01 02:25:53;;;;;;;0.40;0.40;;;-2.50;99.90;;;;;;5225926;28;20048;-76
2022/03/01 02:28:24;;;;;;;0.40;0.40;;;-2.60;99.90;;;;;;5217971;28;20040;-78
2022/03/01 02:31:01;;;;;;;0.40;0.40;;;-2.70;99.90;;;;;;5250165;28;20226;-76
2022/03/01 02:33:34;;;;;;;0.43;0.43;;;-2.80;99.90;;;;;;5245109;28;20490;-76
2022/03/01 02:36:05;;;;;;;0.40;0.40;;;-2.80;99.90;;;;;;5233554;28;21180;-77
2022/03/01 02:38:37;;;;;;;0.77;0.77;;;-2.80;99.90;;;;;;5252015;28;20024;-76
2022/03/01 02:41:08;;;;;;;0.47;0.47;;;-2.90;99.90;;;;;;5240400;28;20370;-76
2022/03/01 02:43:47;;;;;;;0.70;0.70;;;-3.10;99.90;;;;;;5253160;28;20028;-76
2022/03/01 02:46:18;;;;;;;0.40;0.40;;;-3.20;99.90;;;;;;5250908;28;20034;-76
2022/03/01 02:48:55;;;;;;;0.43;0.43;;;-3.30;99.90;;;;;;5246564;28;20050;-77
2022/03/01 02:51:28;;;;;;;0.67;0.67;;;-3.30;99.90;;;;;;5238735;28;20044;-78
2022/03/01 02:54:02;;;;;;;0.80;0.80;;;-3.30;99.90;;;;;;5259386;28;20028;-76
2022/03/01 02:56:56;;;;;;;0.50;0.50;;;-3.40;99.90;;;;;;5233564;28;20557;-76
2022/03/01 02:59:28;;;;;;;0.50;0.50;;;-3.30;99.90;;;;;;5233506;28;20040;-76
2022/03/01 03:02:04;;;;;;;0.30;0.30;;;-3.30;99.90;;;;;;5237622;28;20028;-76
2022/03/01 03:04:39;;;;;;;0.40;0.40;;;-3.40;99.90;;;;;;5227189;28;20078;-76
2022/03/01 03:07:15;;;;;;;0.40;0.40;;;-3.40;99.90;;;;;;5250794;28;20042;-76
2022/03/01 03:09:51;;;;;;;0.40;0.40;;;-3.50;99.90;;;;;;5251659;28;20038;-78
2022/03/01 03:12:26;;;;;;;0.60;0.60;;;-3.60;99.90;;;;;;5259892;28;20642;-77
2022/03/01 03:14:57;;;;;;;0.40;0.40;;;-3.60;99.90;;;;;;5247889;28;20036;-76
2022/03/01 03:17:29;;;;;;;0.40;0.40;;;-3.70;99.90;;;;;;5256572;28;20037;-76
2022/03/01 03:20:09;;;;;;;0.40;0.40;;;-3.60;99.90;;;;;;5264315;28;20032;-77
2022/03/01 03:22:43;;;;;;;0.50;0.50;;;-3.60;99.90;;;;;;5265586;28;20211;-76
2022/03/01 03:25:17;;;;;;;0.40;0.40;;;-3.70;99.90;;;;;;5250839;28;20046;-77
2022/03/01 03:27:51;;;;;;;0.43;0.43;;;-3.70;99.90;;;;;;5239337;28;20043;-77
2022/03/01 03:30:26;;;;;;;;;;;-3.80;99.90;;;;;;5263146;28;20035;-77
2022/03/01 03:32:57;;;;;;;;;;;-3.80;99.90;;;;;;5258398;28;19912;-78
2022/03/01 03:35:47;;;;;;;0.47;0.47;;;-3.80;99.90;;;;;;5243318;28;20279;-76
2022/03/01 03:38:18;;;;;;;0.50;0.50;;;-3.80;99.90;;;;;;5259921;28;20040;-77
2022/03/01 03:40:51;;;;;;;0.40;0.40;;;-3.90;99.90;;;;;;5260302;28;20036;-76
2022/03/01 03:43:26;;;;;;;0.40;0.40;;;-3.90;99.90;;;;;;5232862;28;20024;-77
2022/03/01 03:46:01;;;;;;;1.17;1.17;;;-3.90;99.90;;;;;;5265325;28;20269;-77
2022/03/01 03:48:34;;;;;;;0.50;0.50;;;-3.90;99.90;;;;;;5247050;28;20059;-76
2022/03/01 03:51:11;;;;;;;1.08;1.08;;;-4.00;99.90;;;;;;5248993;28;20065;-78
2022/03/01 03:53:44;;;;;;;0.60;0.60;;;-3.90;99.90;;;;;;5260265;28;20035;-77
2022/03/01 03:56:19;;;;;;;0.37;0.37;;;-4.00;99.90;;;;;;5245448;28;20039;-76
2022/03/01 03:58:52;;;;;;;0.40;0.40;;;-4.00;99.90;;;;;;5255900;28;20035;-77
2022/03/01 04:01:24;;;;;;;0.70;0.70;;;-4.10;99.90;;;;;;5254074;28;20028;-77
2022/03/01 04:03:59;;;;;;;2.83;2.20;;;-4.10;99.90;;;;;;5242322;28;20079;-76
2022/03/01 04:06:31;;;;;;;0.37;0.37;;;-4.00;99.90;;;;;;5249177;28;20063;-77
2022/03/01 04:09:06;;;;;;;0.33;0.33;;;-4.10;99.90;;;;;;5219781;28;20054;-76
2022/03/01 04:11:38;;;;;;;0.30;0.30;;;-4.00;99.90;;;;;;5238261;28;20040;-75
2022/03/01 04:14:10;;;;;;;1.17;1.17;;;-3.70;99.90;;;;;;5243487;28;20051;-76
2022/03/01 04:16:42;;;;;;;0.70;0.70;;;-3.50;99.90;;;;;;5225136;28;20059;-76
2022/03/01 04:19:17;;;;;;;0.77;0.77;;;-3.30;99.90;;;;;;5248156;28;20314;-76
2022/03/01 04:21:51;;;;;;;0.37;0.37;;;-3.20;99.90;;;;;;5256546;28;20368;-76
2022/03/01 04:24:25;;;;;;;;;;;-3.10;99.90;;;;;;5257972;28;20079;-76
2022/03/01 04:26:57;;;;;;;0.70;0.70;;;-3.10;99.90;;;;;;5258752;28;19912;-78
2022/03/01 04:29:34;;;;;;;0.50;0.50;;;-3.20;99.90;;;;;;5266101;28;20046;-77
2022/03/01 04:32:09;;;;;;;0.67;0.67;;;-3.20;99.90;;;;;;5248925;28;20031;-76
2022/03/01 04:34:44;;;;;;;2.30;2.10;;;-3.40;99.90;;;;;;5222271;28;20036;-76
2022/03/01 04:37:16;;;;;;;1.17;1.13;;;-3.40;99.90;;;;;;5242144;28;20028;-76
2022/03/01 04:39:49;;;;;;;0.50;0.50;;;-3.30;99.90;;;;;;5238813;28;20039;-76
2022/03/01 04:42:23;;;;;;;0.40;0.40;;;-3.20;99.90;;;;;;5218673;28;20040;-77
2022/03/01 04:45:00;;;;;;;0.30;0.30;;;-3.10;99.90;;;;;;5251780;28;20046;-77
2022/03/01 04:47:34;;;;;;;0.50;0.50;;;-2.90;99.90;;;;;;5252033;28;20038;-76
2022/03/01 04:50:07;;;;;;;0.55;0.55;;;-2.80;99.90;;;;;;5261140;28;20036;-79
2022/03/01 04:52:40;;;;;;;0.70;0.70;;;-2.70;99.90;;;;;;5248217;28;20052;-75
2022/03/01 04:55:13;;;;;;;0.40;0.40;;;-2.70;99.90;;;;;;5236987;28;20024;-77
2022/03/01 04:57:46;;;;;;;0.50;0.50;;;-2.70;99.90;;;;;;5254049;28;20027;-77
2022/03/01 05:00:27;;;;;;;0.52;0.52;;;-2.80;99.90;;;;;;5229221;28;20060;-77
2022/03/01 05:03:01;;;;;;;0.50;0.50;;;-2.80;99.90;;;;;;5223840;28;20044;-78
2022/03/01 05:05:37;;;;;;;1.77;1.67;;;-2.70;99.90;;;;;;5230969;28;20048;-78
2022/03/01 05:08:11;;;;;;;0.60;0.60;;;-2.70;99.90;;;;;;5240055;28;20506;-78
2022/03/01 05:10:43;;;;;;;0.70;0.70;;;-2.80;99.90;;;;;;5267202;28;20518;-77
2022/03/01 05:13:18;;;;;;;0.50;0.50;;;-2.90;99.90;;;;;;5252981;28;20246;-75
2022/03/01 05:15:55;;;;;;;0.87;0.87;;;-3.00;99.90;;;;;;5261583;28;20051;-77
2022/03/01 05:18:29;;;;;;;0.65;0.65;;;-3.10;99.90;;;;;;5222131;28;20052;-77
2022/03/01 05:21:00;;;;;;;0.60;0.60;;;-3.30;99.90;;;;;;5245684;28;20039;-76
2022/03/01 05:23:37;;;;;;;0.40;0.40;;;-3.40;99.90;;;;;;5264560;28;20038;-77
2022/03/01 05:26:12;;;;;;;0.47;0.47;;;-3.40;99.90;;;;;;5231495;28;20036;-76
2022/03/01 05:28:43;;;;;;;;;;;-3.20;99.90;;;;;;5229736;28;20063;-76
2022/03/01 05:31:20;;;;;;;3.50;1.80;;;-3.10;99.90;;;;;;5254065;28;19915;-77
2022/03/01 05:34:02;;;;;;;0.70;0.70;;;-3.10;99.90;;;;;;5229108;28;20040;-76
2022/03/01 05:36:36;;;;;;;0.57;0.57;;;-3.10;99.90;;;;;;5259499;28;20036;-78
2022/03/01 05:39:10;;;;;;;0.30;0.30;;;-3.10;99.90;;;;;;5219661;28;20039;-78
2022/03/01 05:41:44;;;;;;;0.40;0.40;;;-3.20;99.90;;;;;;5228598;28;20049;-77
2022/03/01 05:44:16;;;;;;;;;;;-3.30;99.90;;;;;;5216408;28;20043;-76
2022/03/01 05:46:50;;;;;;;0.33;0.33;;;-3.40;99.90;;;;;;5260294;28;19926;-76
2022/03/01 05:49:22;;;;;;;0.40;0.40;;;-3.30;99.90;;;;;;5255955;28;20349;-77
2022/03/01 05:51:54;;;;;;;1.10;1.10;;;-3.20;99.90;;;;;;5255511;28;20230;-77
2022/03/01 05:54:25;;;;;;;0.40;0.40;;;-3.20;99.90;;;;;;5248663;28;20202;-78
2022/03/01 05:56:57;;;;;;;0.50;0.50;;;-3.10;99.90;;;;;;5222489;28;20055;-77
2022/03/01 05:59:28;;;;;;;0.50;0.50;;;-2.90;99.90;;;;;;5245278;28;20515;-76
2022/03/01 06:02:04;;;;;;;0.40;0.40;;;-2.80;99.90;;;;;;5251308;28;20047;-77
2022/03/01 06:04:40;;;;;;;0.50;0.50;;;-2.60;99.90;;;;;;5250233;28;20052;-78
2022/03/01 06:07:15;;;;;;;0.40;0.40;;;-2.50;99.90;;;;;;5236846;28;20051;-77
2022/03/01 06:09:49;;;;;;;0.50;0.50;;;-2.40;99.90;;;;;;5218289;28;20044;-76
2022/03/01 06:12:26;;;;;;;0.88;0.88;;;-2.30;99.90;;;;;;5257593;28;20030;-78
2022/03/01 06:14:57;;;;;;;0.47;0.47;;;-2.30;99.90;;;;;;5248459;28;20433;-77
2022/03/01 06:17:29;;;;;;;0.70;0.70;;;-2.20;99.90;;;;;;5224000;28;20047;-79
2022/03/01 06:20:05;;;;;;;1.27;1.23;;;-2.20;99.90;;;;;;5249388;28;20042;-77
2022/03/01 06:22:41;;;;;;;0.40;0.40;;;-2.10;99.90;;;;;;5228054;28;20046;-81
2022/03/01 06:25:18;;;;;;;1.23;1.17;;;-2.00;99.90;;;;;;5266991;28;20028;-77
2022/03/01 06:27:52;;;;;;;0.50;0.50;;;-1.90;99.90;;;;;;5247128;28;20032;-78
2022/03/01 06:30:24;;;;;;;0.60;0.60;;;-1.80;99.90;;;;;;5246968;28;20046;-77
2022/03/01 06:32:59;;;;;;;0.47;0.47;;;-1.70;99.90;;;;;;5258360;28;20047;-78
2022/03/01 06:35:36;;;;;;;2.10;2.00;;;-1.70;99.90;;;;;;5239952;28;20038;-79
2022/03/01 06:38:11;;;;;;;0.60;0.60;;;-1.60;99.90;;;;;;5265435;28;20048;-78
2022/03/01 06:40:48;;;;;;;0.50;0.50;;;-1.50;99.90;;;;;;5259222;28;20058;-78
2022/03/01 06:43:27;;;;;;;0.37;0.37;;;-1.40;99.90;;;;;;5229403;28;20055;-77
2022/03/01 06:45:59;;;;;;;0.40;0.40;;;-1.30;99.90;;;;;;5240774;28;20035;-78
2022/03/01 06:48:37;;;;;;;0.30;0.30;;;-1.20;99.90;;;;;;5240623;28;20044;-76
2022/03/01 06:51:08;;;;;;;0.73;0.73;;;-1.10;99.90;;;;;;5213682;28;20046;-76
2022/03/01 06:53:42;;;;;;;0.60;0.60;;;-1.00;99.90;;;;;;5259257;28;20036;-77
2022/03/01 06:56:14;;;;;;;1.10;1.10;;;-0.90;99.90;;;;;;5250575;28;20028;-77
2022/03/01 06:58:48;;;;;;;0.60;0.60;;;-0.80;99.90;;;;;;5244439;28;20032;-77
2022/03/01 07:01:22;;;;;;;0.77;0.77;;;-0.70;99.90;;;;;;5261288;28;20659;-78
2022/03/01 07:03:55;;;;;;;;;;;-0.60;99.90;;;;;;5245881;28;20048;-78
2022/03/01 07:06:26;;;;;;;0.50;0.50;;;-0.50;99.90;;;;;;5216567;28;19924;-77
2022/03/01 07:08:58;;;;;;;0.50;0.50;;;-0.50;99.90;;;;;;5243786;28;20040;-80
2022/03/01 07:11:35;;;;;;;0.65;0.65;;;-0.50;99.90;;;;;;5253976;28;20522;-80
2022/03/01 07:14:15;;;;;;;0.40;0.40;;;-0.50;99.90;;;;;;5242398;28;20050;-77
2022/03/01 07:16:49;;;;;;;0.80;0.80;;;-0.40;99.90;;;;;;5235928;28;20120;-77
2022/03/01 07:19:22;;;;;;;0.73;0.73;;;-0.30;99.90;;;;;;5254369;28;20341;-78
2022/03/01 07:21:59;;;;;;;0.47;0.47;;;-0.30;99.90;;;;;;5257414;28;20039;-79
2022/03/01 07:24:33;;;;;;;0.40;0.40;;;-0.20;99.90;;;;;;5267069;28;20033;-78
2022/03/01 07:27:07;;;;;;;0.98;0.98;;;-0.10;99.90;;;;;;5247395;28;20040;-76
2022/03/01 07:29:39;;;;;;;1.02;1.02;;;0.10;99.90;;;;;;5259717;28;20040;-79
2022/03/01 07:32:20;;;;;;;0.50;0.50;;;0.00;99.90;;;;;;5244283;28;20040;-80
2022/03/01 07:34:52;;;;;;;0.70;0.70;;;0.00;99.90;;;;;;5233650;28;20042;-78
2022/03/01 07:37:26;;;;;;;0.40;0.40;;;0.10;99.90;;;;;;5253746;28;20051;-78
2022/03/01 07:40:10;;;;;;;1.17;1.17;;;0.00;99.90;;;;;;5258573;28;20040;-78
2022/03/01 07:42:43;;;;;;;0.47;0.47;;;0.00;99.90;;;;;;5206747;28;20038;-80
2022/03/01 07:45:22;;;;;;;0.50;0.50;;;-0.10;99.90;;;;;;5234122;28;20283;-81
2022/03/01 07:47:54;;;;;;;0.55;0.55;;;0.00;99.90;;;;;;5231795;28;20283;-82
2022/03/01 07:50:28;;;;;;;0.60;0.60;;;0.30;99.90;;;;;;5246797;28;20028;-79
2022/03/01 07:53:01;;;;;;;0.98;0.98;;;0.30;99.90;;;;;;5230453;28;20227;-81
2022/03/01 07:55:35;;;;;;;0.50;0.50;;;0.40;99.90;;;;;;5264414;28;20203;-81
2022/03/01 07:58:07;;;;;;;1.20;1.15;;;0.50;99.90;;;;;;5239694;28;20353;-79
2022/03/01 08:00:42;;;;;;;0.57;0.57;;;0.50;99.90;;;;;;5253735;28;20039;-79
2022/03/01 08:03:18;;;;;;;0.60;0.60;;;0.40;99.90;;;;;;5252768;28;20028;-78
2022/03/01 08:05:54;;;;;;;0.50;0.50;;;0.30;99.90;;;;;;5240986;28;20060;-79
2022/03/01 08:08:31;;;;;;;0.95;0.95;;;0.40;99.90;;;;;;5251881;28;20034;-79
2022/03/01 08:11:06;;;;;;;0.52;0.52;;;0.40;99.90;;;;;;5264992;28;20043;-78
2022/03/01 08:13:37;;;;;;;0.70;0.70;;;0.60;99.90;;;;;;5214888;28;20060;-78
2022/03/01 08:16:10;;;;;;;0.50;0.50;;;0.60;99.90;;;;;;5242819;28;20337;-80
2022/03/01 08:18:44;;;;;;;0.60;0.60;;;0.70;99.90;;;;;;5245817;28;20036;-79
2022/03/01 08:21:16;;;;;;;0.85;0.85;;;0.70;99.90;;;;;;5250638;28;20044;-78
2022/03/01 08:23:48;;;;;;;0.60;0.60;;;0.80;99.90;;;;;;5235755;28;20059;-77
2022/03/01 08:26:22;;;;;;;0.70;0.70;;;1.00;99.90;;;;;;5254248;28;20048;-77
2022/03/01 08:28:57;;;;;;;0.68;0.68;;;1.00;99.90;;;;;;5253956;28;20515;-79
2022/03/01 08:31:31;;;;;;;1.02;1.02;;;1.00;99.90;;;;;;5257724;28;20032;-77
2022/03/01 08:34:08;;;;;;;0.98;0.98;;;1.10;99.90;;;;;;5248812;28;20036;-78
2022/03/01 08:36:42;;;;;;;0.45;0.45;;;1.40;99.90;;;;;;5218155;28;20447;-78
2022/03/01 08:39:15;;;;;;;;;;;1.70;99.90;;;;;;5222610;28;20361;-77
2022/03/01 08:41:53;;;;;;;1.75;1.25;;;1.50;99.90;;;;;;5261075;28;20392;-79
2022/03/01 08:44:28;;;;;;;0.98;0.98;;;1.50;99.90;;;;;;5233130;28;20034;-77
2022/03/01 08:47:02;;;;;;;0.55;0.55;;;1.70;99.90;;;;;;5221941;28;20052;-76
2022/03/01 08:49:33;;;;;;;0.90;0.90;;;1.80;99.90;;;;;;5233370;28;20041;-77
2022/03/01 08:52:08;;;;;;;0.75;0.75;;;2.10;99.90;;;;;;5247195;28;20048;-75
2022/03/01 08:54:42;;;;;;;0.63;0.63;;;2.20;99.90;;;;;;5239764;28;20035;-77
2022/03/01 08:57:18;;;;;;;0.65;0.65;;;2.00;99.90;;;;;;5241412;28;20034;-77
2022/03/01 08:59:50;;;;;;;0.65;0.65;;;2.00;99.90;;;;;;5235595;28;20031;-76
2022/03/01 09:02:24;;;;;;;0.52;0.52;;;2.10;99.90;;;;;;5227884;28;20060;-76
2022/03/01 09:05:01;;;;;;;0.70;0.70;;;2.50;99.90;;;;;;5236990;28;20067;-75
2022/03/01 09:07:37;;;;;;;0.70;0.70;;;2.10;99.90;;;;;;5240062;28;20036;-76
2022/03/01 09:10:09;;;;;;;1.90;1.80;;;2.10;99.90;;;;;;5240922;28;20459;-76
2022/03/01 09:12:43;;;;;;;0.80;0.80;;;2.30;99.90;;;;;;5237504;28;20030;-76
2022/03/01 09:15:15;;;;;;;0.60;0.60;;;2.40;99.90;;;;;;5227512;28;20036;-78
2022/03/01 09:17:52;;;;;;;0.70;0.70;;;2.70;99.90;;;;;;5219321;28;20044;-76
2022/03/01 09:20:35;;;;;;;0.80;0.80;;;2.60;99.90;;;;;;5225782;28;20040;-78
2022/03/01 09:23:10;;;;;;;1.05;1.05;;;2.60;99.90;;;;;;5230951;28;20124;-79
2022/03/01 09:25:45;;;;;;;0.60;0.60;;;2.90;99.90;;;;;;5224900;28;20500;-77
2022/03/01 09:28:19;;;;;;;0.63;0.63;;;3.10;99.90;;;;;;5240943;28;20047;-76
2022/03/01 09:30:55;;;;;;;1.00;1.00;;;3.30;99.90;;;;;;5245103;28;20445;-76
2022/03/01 09:33:29;;;;;;;0.47;0.47;;;3.10;99.90;;;;;;5228724;28;20028;-78
2022/03/01 09:36:01;;;;;;;0.70;0.70;;;3.10;99.90;;;;;;5240603;28;20047;-77
2022/03/01 09:38:32;;;;;;;1.15;1.15;;;3.30;99.90;;;;;;5254229;28;20020;-77
2022/03/01 09:41:04;;;;;;;0.68;0.68;;;3.30;99.90;;;;;;5247970;28;20044;-76
2022/03/01 09:43:42;;;;;;;0.63;0.63;;;3.30;99.90;;;;;;5239883;28;20044;-76
2022/03/01 09:46:18;;;;;;;0.85;0.85;;;3.20;99.90;;;;;;5253995;28;20478;-76
2022/03/01 09:48:53;;;;;;;0.47;0.47;;;3.00;99.90;;;;;;5237988;28;20552;-75
2022/03/01 09:51:32;;;;;;;0.75;0.75;;;3.20;99.90;;;;;;5233986;28;20036;-75
2022/03/01 09:54:06;;;;;;;0.80;0.80;;;3.30;99.90;;;;;;5240513;28;20067;-75
2022/03/01 09:56:40;;;;;;;0.75;0.75;;;3.40;99.90;;;;;;5242777;28;20050;-76
2022/03/01 09:59:12;;;;;;;0.68;0.68;;;3.60;99.90;;;;;;5253705;28;20074;-78
2022/03/01 10:01:52;;;;;;;1.15;1.05;;;3.80;99.90;;;;;;5255385;28;20047;-75
2022/03/01 10:04:32;;;;;;;0.50;0.50;;;4.20;99.90;;;;;;5228433;28;20070;-75
2022/03/01 10:07:12;;;;;;;0.60;0.60;;;4.40;99.90;;;;;;5246820;28;20336;-77
2022/03/01 10:09:44;;;;;;;1.05;0.75;;;4.40;99.90;;;;;;5238397;28;20214;-75
2022/03/01 10:12:27;;;;;;;0.70;0.70;;;4.30;99.90;;;;;;5245900;28;20046;-77
2022/03/01 10:15:10;;;;;;;0.70;0.70;;;4.60;99.90;;;;;;5244875;28;20569;-78
2022/03/01 10:17:47;;;;;;;0.75;0.75;;;5.10;99.90;;;;;;5223376;28;20131;-77
2022/03/01 10:20:22;;;;;;;0.65;0.65;;;4.90;99.90;;;;;;5240514;28;20624;-76
2022/03/01 10:22:59;;;;;;;1.02;1.02;;;4.60;99.90;;;;;;5224796;28;20050;-76
2022/03/01 10:25:39;;;;;;;1.50;1.42;;;4.40;99.90;;;;;;5262158;28;20046;-76
2022/03/01 10:28:15;;;;;;;0.90;0.90;;;4.50;99.90;;;;;;5235927;28;20032;-77
2022/03/01 10:30:47;;;;;;;0.50;0.50;;;4.90;99.90;;;;;;5235762;28;20021;-77
2022/03/01 10:33:23;;;;;;;0.73;0.73;;;5.30;99.90;;;;;;5222562;28;20056;-77
2022/03/01 10:36:04;;;;;;;0.73;0.73;;;5.70;99.90;;;;;;5249016;28;20327;-76
2022/03/01 10:38:39;;;;;;;0.70;0.70;;;6.50;99.90;;;;;;5242598;28;20365;-76
2022/03/01 10:41:21;;;;;;;;;;;7.10;99.90;;;;;;5240908;28;20040;-76
2022/03/01 10:43:59;;;;;;;1.40;1.40;;;6.90;99.90;;;;;;5262730;28;19964;-76
2022/03/01 10:46:43;;;;;;;0.52;0.52;;;6.50;99.90;;;;;;5235580;28;20479;-76
2022/03/01 10:49:20;;;;;;;0.52;0.52;;;7.60;99.90;;;;;;5256696;28;20033;-75
2022/03/01 10:52:08;;;;;;;1.90;1.80;;;8.50;99.90;;;;;;5237461;28;20050;-76
2022/03/01 10:54:46;;;;;;;1.00;1.00;;;8.00;99.90;;;;;;5232386;28;20034;-76
2022/03/01 10:57:24;;;;;;;1.33;0.95;;;8.10;99.90;;;;;;5240076;28;20040;-76
2022/03/01 10:59:58;;;;;;;1.17;1.13;;;8.20;99.90;;;;;;5253885;28;20474;-76
2022/03/01 11:02:30;;;;;;;;;;;9.30;99.90;;;;;;5201274;28;20402;-76
2022/03/01 11:05:02;;;;;;;0.80;0.80;;;9.30;99.90;;;;;;5215993;28;19932;-76
2022/03/01 11:07:37;;;;;;;0.77;0.77;;;9.00;99.90;;;;;;5247738;28;20042;-76
2022/03/01 11:10:12;;;;;;;;;;;9.70;99.90;;;;;;5240693;28;20024;-76
2022/03/01 11:12:46;;;;;;;0.70;0.70;;;11.10;99.90;;;;;;5244276;28;20314;-77
2022/03/01 11:16:14;;;;;;;0.90;0.90;;;10.20;99.90;;;;;;5241227;28;20229;-78
2022/03/01 11:19:25;;;;;;;0.95;0.95;;;8.90;99.90;;;;;;5225640;28;20820;-78
2022/03/01 11:22:00;;;;;;;0.77;0.77;;;9.20;99.90;;;;;;5236334;28;20039;-76
2022/03/01 11:24:33;;;;;;;1.20;1.20;;;9.70;99.90;;;;;;5213527;28;20043;-77
2022/03/01 11:27:10;;;;;;;0.80;0.80;;;9.60;99.90;;;;;;5236397;28;20044;-78
2022/03/01 11:29:44;;;;;;;0.80;0.80;;;9.80;99.90;;;;;;5227383;28;20036;-76
2022/03/01 11:32:25;;;;;;;1.17;1.17;;;10.00;99.90;;;;;;5238753;28;20043;-78
2022/03/01 11:35:11;;;;;;;1.27;1.02;;;10.10;99.90;;;;;;5245899;28;20052;-78
2022/03/01 11:37:49;;;;;;;1.15;1.15;;;11.50;99.90;;;;;;5227395;28;20039;-77
2022/03/01 11:40:25;;;;;;;0.85;0.85;;;10.80;99.90;;;;;;5226058;28;20357;-77
2022/03/01 11:43:13;;;;;;;1.77;1.67;;;10.30;99.90;;;;;;5234502;28;20069;-76
2022/03/01 11:45:58;;;;;;;1.70;1.60;;;10.80;99.90;;;;;;5226600;28;20374;-75
2022/03/01 11:48:29;;;;;;;1.13;1.13;;;12.70;99.90;;;;;;5218426;28;20034;-77
2022/03/01 11:51:05;;;;;;;0.70;0.70;;;10.80;99.90;;;;;;5228888;28;21087;-77
2022/03/01 11:53:45;;;;;;;1.02;1.02;;;10.70;99.90;;;;;;5211752;28;20044;-77
2022/03/01 11:56:19;;;;;;;1.67;1.40;;;11.40;99.90;;;;;;5222502;28;20048;-78
2022/03/01 11:58:52;;;;;;;1.30;1.30;;;12.50;99.90;;;;;;5233280;28;20028;-77
2022/03/01 12:01:33;;;;;;;1.30;1.30;;;11.50;99.90;;;;;;5227780;28;20038;-77
2022/03/01 12:04:21;;;;;;;1.05;1.05;;;11.00;99.90;;;;;;5244197;28;20622;-77
2022/03/01 12:06:59;;;;;;;0.80;0.80;;;11.60;99.90;;;;;;5236970;28;20056;-78
2022/03/01 12:09:35;;;;;;;1.95;1.65;;;12.30;99.90;;;;;;5235789;28;20040;-77
2022/03/01 12:12:09;;;;;;;1.40;1.30;;;9.90;99.90;;;;;;5246291;28;20036;-76
2022/03/01 12:14:56;;;;;;;0.90;0.90;;;10.40;99.90;;;;;;5239543;28;20058;-77
2022/03/01 12:17:39;;;;;;;1.90;1.83;;;10.70;99.90;;;;;;5258076;28;20415;-76
2022/03/01 12:20:14;;;;;;;0.68;0.68;;;9.30;99.90;;;;;;5248314;28;20555;-77
2022/03/01 12:23:03;;;;;;;1.25;1.25;;;11.20;99.90;;;;;;5226560;28;20036;-77
2022/03/01 12:25:38;;;;;;;1.67;1.63;;;11.30;99.90;;;;;;5255072;28;20036;-76
2022/03/01 12:28:16;;;;;;;2.75;1.38;;;10.10;99.90;;;;;;5237192;28;20034;-76
2022/03/01 12:30:49;;;;;;;1.55;1.48;;;10.20;99.90;;;;;;5258718;28;20050;-77
2022/03/01 12:33:23;;;;;;;1.88;1.77;;;11.00;99.90;;;;;;5241874;28;20306;-78
2022/03/01 12:36:03;;;;;;;1.10;1.10;;;12.30;99.90;;;;;;5243106;28;20048;-75
2022/03/01 12:38:36;;;;;;;0.90;0.90;;;12.30;99.90;;;;;;5223939;28;20044;-77
2022/03/01 12:41:11;;;;;;;0.70;0.70;;;11.00;99.90;;;;;;5223485;28;20552;-77
2022/03/01 12:43:54;;;;;;;;;;;10.60;99.90;;;;;;5247128;28;20027;-76
2022/03/01 12:46:32;;;;;;;1.42;1.42;;;10.90;99.90;;;;;;5234852;28;19918;-76
2022/03/01 12:49:15;;;;;;;1.98;1.83;;;10.50;99.90;;;;;;5233730;28;20037;-79
2022/03/01 12:51:58;;;;;;;1.02;1.02;;;10.60;99.90;;;;;;5234990;28;20031;-76
2022/03/01 12:54:29;;;;;;;0.95;0.95;;;10.80;99.90;;;;;;5223161;28;20042;-77
2022/03/01 12:57:08;;;;;;;1.80;1.70;;;10.60;99.90;;;;;;5239672;28;20040;-77
2022/03/01 12:59:40;;;;;;;0.95;0.95;;;10.90;99.90;;;;;;5247363;28;20028;-77
2022/03/01 13:02:16;;;;;;;0.70;0.70;;;11.10;99.90;;;;;;5234697;28;20506;-78
2022/03/01 13:04:56;;;;;;;0.77;0.77;;;10.70;99.90;;;;;;5233366;28;20705;-77
2022/03/01 13:07:30;;;;;;;1.55;1.45;;;11.30;99.90;;;;;;5232863;28;20248;-77
2022/03/01 13:10:08;;;;;;;0.73;0.73;;;11.30;99.90;;;;;;5241220;28;20052;-77
2022/03/01 13:12:55;;;;;;;1.40;1.40;;;11.70;99.90;;;;;;5231013;28;20039;-77
2022/03/01 13:15:27;;;;;;;0.95;0.95;;;11.40;99.90;;;;;;5255541;28;20040;-78
2022/03/01 13:18:03;;;;;;;1.48;1.42;;;10.90;99.90;;;;;;5226680;28;20057;-77
2022/03/01 13:20:51;;;;;;;1.05;1.05;;;10.30;99.90;;;;;;5239844;28;20037;-77
2022/03/01 13:23:38;;;;;;;1.00;1.00;;;10.60;99.90;;;;;;5238140;28;20032;-76
2022/03/01 13:26:11;;;;;;;1.55;1.48;;;11.40;99.90;;;;;;5254329;28;20039;-76
2022/03/01 13:28:42;;;;;;;1.00;1.00;;;11.10;99.90;;;;;;5231469;28;20035;-76
2022/03/01 13:31:43;;;;;;;1.27;1.27;;;11.00;99.90;;;;;;5234553;28;20040;-76
2022/03/01 13:34:19;;;;;;;2.03;1.92;;;10.40;99.90;;;;;;5222971;28;20045;-77
2022/03/01 13:36:54;;;;;;;0.73;0.73;;;10.20;99.90;;;;;;5225093;28;20040;-76